2021-10-27 08:48:47 Find the results of "

kaxs

" for you

AirNav: KAXS - Altus/Quartz Mountain Regional Airport

kaxs : 190855z auto 12008kt 10sm clr 13/08 a2996 rmk ao2 t01300081 klts 4nm se : 190856z auto 13007kt 10sm clr 12/08 a2992 rmk ao2 slp123 t01210076 57008 taf; klts

AWC - METeorological Aerodrome Reports (METARs)

Data at: 1106 UTC 19 Oct 2021. KAXS 191055Z AUTO 12008KT 10SM CLR 13/09 A2994 RMK AO2 T01250085. KAXS 191035Z AUTO 12007KT 10SM CLR 13/08 A2994 RMK AO2 T01260083. KAXS 191015Z AUTO 12007KT 10SM CLR 13/08 A2994 RMK AO2 T01250082. KAXS 190955Z AUTO 12009KT 10SM CLR 13/08 A2995 RMK AO2 T01260082.

Kaxs Proxtec - kappahl.com

Customer Service Contact Us Privacy policy Cookies consent settings About Kappahl About us Work with us Sustainability Investors Press Fashion Club Fashion Club (in ...

AXS Altus/Quartz Mtn Rgnl Airport (AXS/KAXS) - FlightAware

kaxs 180855z auto 12004kt 10sm clr 09/04 a3014 rmk ao2 t00850043 2021/10/18 06:22 kcsm 180520z 1806/1906 18013kt p6sm sct250 fm181500 18019g27kt p6sm sct250 x

N561SF Flight Tracking and History 25-Oct-2021 (KOKC-KAXS ...

Flight status, tracking, and historical data for N561SF 25-Oct-2021 (KOKC-KAXS) including scheduled, estimated, and actual departure and arrival times.

Kaxs Customs - Home | Facebook

Kaxs Customs, Pico Rivera, CA. 274 likes · 1 talking about this · 9 were here. At kaxs custom we specialize in custom airbrush murals, lettering, graffitti art, body art & props.We custom make...

Kawasaki - Lawn Mower Engines - Small Engines

Kawasaki Engines designs and builds top-of-the-line commercial and residential lawn mower engines - from walk behinds to zero turns and other turf and construction equipment. Our nationwide network of Kawasaki Authorized Dealers are on-hand to provide expert information, engine service, and sales of Kawasaki powered equipment and Genuine Parts ...

CO2 Engine Emission Data | Kawasaki Engines

Updated 18th February 2021. In regards to Regulation (EU) 2016/1628 Article 43, please inform the following CO2 values to the end-user. "In accordance to Regulation (EU) 2016/1628 and Regulation (EU) 2017/654, we provide below the value of carbon dioxide emissions for our engine which was determined during the EU Type-Approval Process."

Engines | Kawasaki Engines

Engines. For professional walk-behind mowers, offering heavy-duty durability and outstanding commercial performance. A high quality power solution for residential ride-on mowers, offering smooth, quiet, low-vibration running. For long-term performance and reliability, providing professionals with steadfast power they can trust.

Start - KappAhl

FASHIONABLE AND AFFORDABLE FASHION FOR THE WHOLE FAMILY. At the moment we deliver to Sweden, Norway, Denmark (via the Swedish site), Finland and Poland. Woman Man Kids.